sensor_id;sensor_type;location;lat;lon;timestamp;pressure;altitude;pressure_sealevel;temperature;humidity
14383;BME280;7275;50.328;8.720;2023-06-14T00:01:49;99410.16;;;24.34;27.95
14383;BME280;7275;50.328;8.720;2023-06-14T00:04:17;99410.59;;;24.30;28.10
14383;BME280;7275;50.328;8.720;2023-06-14T00:06:47;99412.75;;;24.26;27.90
14383;BME280;7275;50.328;8.720;2023-06-14T00:09:17;99420.31;;;24.23;nan
14383;BME280;7275;50.328;8.720;2023-06-14T00:11:46;99413.50;;;24.19;28.05
14383;BME280;7275;50.328;8.720;2023-06-14T00:14:14;99420.06;;;24.16;28.20
14383;BME280;7275;50.328;8.720;2023-06-14T00:16:42;99422.38;;;24.11;28.07
14383;BME280;7275;50.328;8.720;2023-06-14T00:19:10;99425.50;;;24.07;28.14
14383;BME280;7275;50.328;8.720;2023-06-14T00:21:38;99416.41;;;23.98;28.21
14383;BME280;7275;50.328;8.720;2023-06-14T00:24:07;99415.72;;;23.96;28.29
14383;BME280;7275;50.328;8.720;2023-06-14T00:26:35;99415.59;;;23.88;28.49
14383;BME280;7275;50.328;8.720;2023-06-14T00:29:04;99412.34;;;23.84;28.21
14383;BME280;7275;50.328;8.720;2023-06-14T00:31:32;99417.88;;;23.83;28.76
14383;BME280;7275;50.328;8.720;2023-06-14T00:34:00;99419.72;;;23.82;28.58
14383;BME280;7275;50.328;8.720;2023-06-14T00:36:28;99423.44;;;23.81;28.44
14383;BME280;7275;50.328;8.720;2023-06-14T00:38:56;99419.88;;;23.81;28.21
14383;BME280;7275;50.328;8.720;2023-06-14T00:41:23;99422.75;;;23.79;28.66
14383;BME280;7275;50.328;8.720;2023-06-14T00:43:51;99426.56;;;23.77;28.63
14383;BME280;7275;50.328;8.720;2023-06-14T00:46:23;99427.00;;;23.72;28.72
14383;BME280;7275;50.328;8.720;2023-06-14T00:48:52;99422.75;;;23.70;28.62
14383;BME280;7275;50.328;8.720;2023-06-14T00:51:20;99416.97;;;23.65;28.95
14383;BME280;7275;50.328;8.720;2023-06-14T00:53:48;99418.53;;;23.58;28.59
14383;BME280;7275;50.328;8.720;2023-06-14T00:56:16;99419.97;;;23.52;29.03
14383;BME280;7275;50.328;8.720;2023-06-14T00:58:47;99425.81;;;23.48;28.72
14383;BME280;7275;50.328;8.720;2023-06-14T01:01:16;99429.94;;;23.42;29.11
14383;BME280;7275;50.328;8.720;2023-06-14T01:03:45;99432.22;;;23.37;28.88
14383;BME280;7275;50.328;8.720;2023-06-14T01:06:19;99435.47;;;23.31;28.76
14383;BME280;7275;50.328;8.720;2023-06-14T01:09:03;99420.56;;;23.27;28.99
14383;BME280;7275;50.328;8.720;2023-06-14T01:11:39;99425.41;;;23.24;29.22
14383;BME280;7275;50.328;8.720;2023-06-14T01:14:10;99424.53;;;23.23;29.17
14383;BME280;7275;50.328;8.720;2023-06-14T01:16:39;99431.78;;;23.23;29.17
14383;BME280;7275;50.328;8.720;2023-06-14T01:19:11;99428.22;;;23.22;29.24
14383;BME280;7275;50.328;8.720;2023-06-14T01:21:40;99438.03;;;23.23;28.88
14383;BME280;7275;50.328;8.720;2023-06-14T01:24:10;99435.34;;;23.23;29.14
14383;BME280;7275;50.328;8.720;2023-06-14T01:26:39;99428.91;;;23.24;28.86
14383;BME280;7275;50.328;8.720;2023-06-14T01:29:13;99428.09;;;23.24;29.20
14383;BME280;7275;50.328;8.720;2023-06-14T01:31:44;99431.78;;;23.23;28.90
14383;BME280;7275;50.328;8.720;2023-06-14T01:34:13;99438.03;;;23.23;29.28
14383;BME280;7275;50.328;8.720;2023-06-14T01:36:43;99434.47;;;23.23;29.23
14383;BME280;7275;50.328;8.720;2023-06-14T01:39:14;99430.09;;;23.22;29.22
14383;BME280;7275;50.328;8.720;2023-06-14T01:41:43;99432.91;;;23.20;28.84
14383;BME280;7275;50.328;8.720;2023-06-14T01:44:13;99421.81;;;23.14;29.08
14383;BME280;7275;50.328;8.720;2023-06-14T01:46:42;99425.38;;;23.14;28.83
14383;BME280;7275;50.328;8.720;2023-06-14T01:49:11;99423.56;;;23.15;29.06
14383;BME280;7275;50.328;8.720;2023-06-14T01:51:39;99428.53;;;23.19;28.81
14383;BME280;7275;50.328;8.720;2023-06-14T01:54:07;99427.50;;;23.20;28.90
14383;BME280;7275;50.328;8.720;2023-06-14T01:56:36;99430.34;;;23.19;28.87
14383;BME280;7275;50.328;8.720;2023-06-14T01:59:04;99426.09;;;23.16;28.83
14383;BME280;7275;50.328;8.720;2023-06-14T02:01:32;99425.38;;;23.14;29.06
14383;BME280;7275;50.328;8.720;2023-06-14T02:04:01;99429.09;;;23.13;29.27
14383;BME280;7275;50.328;8.720;2023-06-14T02:06:28;99420.28;;;23.11;29.23
14383;BME280;7275;50.328;8.720;2023-06-14T02:08:56;99419.28;;;23.12;29.16
14383;BME280;7275;50.328;8.720;2023-06-14T02:11:24;99430.06;;;23.12;29.13
14383;BME280;7275;50.328;8.720;2023-06-14T02:13:54;99426.66;;;23.10;29.02
14383;BME280;7275;50.328;8.720;2023-06-14T02:16:22;99431.50;;;23.07;29.01
14383;BME280;7275;50.328;8.720;2023-06-14T02:18:51;99432.63;;;23.04;29.36
14383;BME280;7275;50.328;8.720;2023-06-14T02:21:19;99427.97;;;22.96;29.20
14383;BME280;7275;50.328;8.720;2023-06-14T02:23:47;99435.19;;;22.96;29.32
14383;BME280;7275;50.328;8.720;2023-06-14T02:26:15;99442.84;;;22.91;29.42
14383;BME280;7275;50.328;8.720;2023-06-14T02:28:43;99436.75;;;22.89;29.59
14383;BME280;7275;50.328;8.720;2023-06-14T02:31:12;99442.56;;;22.84;29.56
14383;BME280;7275;50.328;8.720;2023-06-14T02:33:40;99443.56;;;22.83;29.34
14383;BME280;7275;50.328;8.720;2023-06-14T02:36:08;99444.84;;;22.79;29.67
14383;BME280;7275;50.328;8.720;2023-06-14T02:38:36;99438.72;;;22.77;29.62
14383;BME280;7275;50.328;8.720;2023-06-14T02:41:04;99438.13;;;22.74;29.63
14383;BME280;7275;50.328;8.720;2023-06-14T02:43:32;99443.13;;;22.69;29.87
14383;BME280;7275;50.328;8.720;2023-06-14T02:46:00;99455.03;;;22.66;29.70
14383;BME280;7275;50.328;8.720;2023-06-14T02:48:29;99446.38;;;22.63;30.18
14383;BME280;7275;50.328;8.720;2023-06-14T02:50:57;99447.66;;;22.59;30.01
14383;BME280;7275;50.328;8.720;2023-06-14T02:53:25;99454.28;;;22.55;30.23
14383;BME280;7275;50.328;8.720;2023-06-14T02:55:53;99464.44;;;22.51;30.29
14383;BME280;7275;50.328;8.720;2023-06-14T02:58:22;99463.16;;;22.46;30.09
14383;BME280;7275;50.328;8.720;2023-06-14T03:00:51;99461.88;;;22.40;30.53
14383;BME280;7275;50.328;8.720;2023-06-14T03:03:20;99464.84;;;22.37;30.41
14383;BME280;7275;50.328;8.720;2023-06-14T03:05:50;99460.56;;;22.35;30.26
14383;BME280;7275;50.328;8.720;2023-06-14T03:08:18;99465.41;;;22.31;30.27
14383;BME280;7275;50.328;8.720;2023-06-14T03:10:46;99466.38;;;22.30;30.36
14383;BME280;7275;50.328;8.720;2023-06-14T03:13:15;99469.34;;;22.27;30.48
14383;BME280;7275;50.328;8.720;2023-06-14T03:15:43;99472.31;;;22.24;30.86
14383;BME280;7275;50.328;8.720;2023-06-14T03:18:11;99477.84;;;22.22;30.80
14383;BME280;7275;50.328;8.720;2023-06-14T03:20:39;99478.13;;;22.19;30.78
14383;BME280;7275;50.328;8.720;2023-06-14T03:23:08;99474.13;;;22.14;30.80
14383;BME280;7275;50.328;8.720;2023-06-14T03:25:36;99477.53;;;22.16;30.96
14383;BME280;7275;50.328;8.720;2023-06-14T03:28:05;99484.75;;;22.15;30.63
14383;BME280;7275;50.328;8.720;2023-06-14T03:30:32;99485.88;;;22.13;30.91
14383;BME280;7275;50.328;8.720;2023-06-14T03:33:00;99487.00;;;22.10;30.83
14383;BME280;7275;50.328;8.720;2023-06-14T03:35:28;99490.81;;;22.08;30.84
14383;BME280;7275;50.328;8.720;2023-06-14T03:37:56;99494.50;;;22.07;30.91
14383;BME280;7275;50.328;8.720;2023-06-14T03:40:25;99498.41;;;22.03;30.99
14383;BME280;7275;50.328;8.720;2023-06-14T03:45:21;99499.69;;;21.99;31.10
14383;BME280;7275;50.328;8.720;2023-06-14T03:47:49;99508.91;;;21.96;31.47
14383;BME280;7275;50.328;8.720;2023-06-14T03:50:18;99510.72;;;21.96;31.57
14383;BME280;7275;50.328;8.720;2023-06-14T03:52:47;99516.97;;;21.96;31.58
14383;BME280;7275;50.328;8.720;2023-06-14T03:55:15;99513.44;;;21.96;31.57
14383;BME280;7275;50.328;8.720;2023-06-14T03:57:47;99522.47;;;21.95;31.38
14383;BME280;7275;50.328;8.720;2023-06-14T04:00:15;99520.78;;;21.94;31.49
14383;BME280;7275;50.328;8.720;2023-06-14T04:02:43;99526.16;;;21.94;31.49
14383;BME280;7275;50.328;8.720;2023-06-14T04:05:11;99529.84;;;21.93;31.70
14383;BME280;7275;50.328;8.720;2023-06-14T04:07:40;99527.84;;;21.95;31.61
14383;BME280;7275;50.328;8.720;2023-06-14T04:10:12;99531.28;;;21.97;31.39
14383;BME280;7275;50.328;8.720;2023-06-14T04:12:40;99533.84;;;21.98;31.90
14383;BME280;7275;50.328;8.720;2023-06-14T04:15:11;99535.41;;;22.01;31.86
14383;BME280;7275;50.328;8.720;2023-06-14T04:17:47;99538.09;;;22.01;31.61
14383;BME280;7275;50.328;8.720;2023-06-14T04:20:15;99534.44;;;22.02;31.99
14383;BME280;7275;50.328;8.720;2023-06-14T04:22:43;99535.28;;;22.02;31.71
14383;BME280;7275;50.328;8.720;2023-06-14T04:25:11;99536.00;;;22.04;32.01
14383;BME280;7275;50.328;8.720;2023-06-14T04:27:39;99536.72;;;22.06;31.83
14383;BME280;7275;50.328;8.720;2023-06-14T04:30:08;99534.59;;;22.10;32.06
14383;BME280;7275;50.328;8.720;2023-06-14T04:32:37;99539.59;;;22.14;31.81
14383;BME280;7275;50.328;8.720;2023-06-14T04:35:07;99550.09;;;22.17;32.09
14383;BME280;7275;50.328;8.720;2023-06-14T04:37:35;99558.78;;;22.21;31.89
14383;BME280;7275;50.328;8.720;2023-06-14T04:40:07;99560.22;;;22.25;32.03
14383;BME280;7275;50.328;8.720;2023-06-14T04:42:38;99560.78;;;22.28;32.25
14383;BME280;7275;50.328;8.720;2023-06-14T04:45:08;99556.84;;;22.33;32.14
14383;BME280;7275;50.328;8.720;2023-06-14T04:47:38;99564.66;;;22.36;32.07
14383;BME280;7275;50.328;8.720;2023-06-14T04:50:07;99561.69;;;22.39;32.25
14383;BME280;7275;50.328;8.720;2023-06-14T04:52:35;99561.56;;;22.40;32.03
14383;BME280;7275;50.328;8.720;2023-06-14T04:55:04;99555.88;;;22.43;31.98
14383;BME280;7275;50.328;8.720;2023-06-14T04:57:32;99561.75;;;22.48;32.13
14383;BME280;7275;50.328;8.720;2023-06-14T04:59:59;99563.44;;;22.49;32.46
14383;BME280;7275;50.328;8.720;2023-06-14T05:02:30;99566.44;;;22.56;32.31
14383;BME280;7275;50.328;8.720;2023-06-14T05:05:00;99564.47;;;22.58;32.27
14383;BME280;7275;50.328;8.720;2023-06-14T05:07:28;99571.19;;;22.63;32.06
14383;BME280;7275;50.328;8.720;2023-06-14T05:09:55;99566.25;;;22.68;32.29
14383;BME280;7275;50.328;8.720;2023-06-14T05:12:23;99574.88;;;22.72;32.11
14383;BME280;7275;50.328;8.720;2023-06-14T05:14:51;99571.78;;;22.76;32.52
14383;BME280;7275;50.328;8.720;2023-06-14T05:17:19;99569.94;;;22.77;32.23
14383;BME280;7275;50.328;8.720;2023-06-14T05:19:46;99566.84;;;22.81;32.19
14383;BME280;7275;50.328;8.720;2023-06-14T05:22:17;99573.81;;;22.84;32.56
14383;BME280;7275;50.328;8.720;2023-06-14T05:24:45;99568.84;;;22.89;32.21
14383;BME280;7275;50.328;8.720;2023-06-14T05:27:14;99572.00;;;22.94;32.63
14383;BME280;7275;50.328;8.720;2023-06-14T05:29:42;99575.09;;;22.99;32.45
14383;BME280;7275;50.328;8.720;2023-06-14T05:32:09;99573.00;;;23.02;32.46
14383;BME280;7275;50.328;8.720;2023-06-14T05:34:37;99568.03;;;23.08;32.61
14383;BME280;7275;50.328;8.720;2023-06-14T05:37:05;99576.56;;;23.13;33.08
14383;BME280;7275;50.328;8.720;2023-06-14T05:39:34;99573.31;;;23.19;32.73
14383;BME280;7275;50.328;8.720;2023-06-14T05:42:02;99577.28;;;23.24;32.90
14383;BME280;7275;50.328;8.720;2023-06-14T05:44:30;99585.56;;;23.32;32.78
14383;BME280;7275;50.328;8.720;2023-06-14T05:46:57;99582.03;;;23.41;32.71
14383;BME280;7275;50.328;8.720;2023-06-14T05:49:26;99577.78;;;23.48;32.69
14383;BME280;7275;50.328;8.720;2023-06-14T05:51:53;99585.00;;;23.57;32.79
14383;BME280;7275;50.328;8.720;2023-06-14T05:54:21;99587.03;;;23.65;32.50
14383;BME280;7275;50.328;8.720;2023-06-14T05:56:50;99585.44;;;23.72;32.45
14383;BME280;7275;50.328;8.720;2023-06-14T05:59:18;99594.84;;;23.77;32.46
14383;BME280;7275;50.328;8.720;2023-06-14T06:01:45;99592.41;;;23.84;32.48
14383;BME280;7275;50.328;8.720;2023-06-14T06:04:13;99593.41;;;23.93;32.44
14383;BME280;7275;50.328;8.720;2023-06-14T06:06:41;99591.66;;;24.01;32.29
14383;BME280;7275;50.328;8.720;2023-06-14T06:09:09;99584.88;;;24.07;32.40
14383;BME280;7275;50.328;8.720;2023-06-14T06:11:36;99592.78;;;24.18;32.21
14383;BME280;7275;50.328;8.720;2023-06-14T06:14:19;99601.59;;;24.29;32.26
14383;BME280;7275;50.328;8.720;2023-06-14T06:16:47;99594.47;;;24.38;32.35
14383;BME280;7275;50.328;8.720;2023-06-14T06:19:15;99600.00;;;24.46;32.38
14383;BME280;7275;50.328;8.720;2023-06-14T06:21:43;99603.66;;;24.54;32.19
14383;BME280;7275;50.328;8.720;2023-06-14T06:24:10;99592.09;;;24.62;32.31
14383;BME280;7275;50.328;8.720;2023-06-14T06:26:38;99599.75;;;24.67;32.09
14383;BME280;7275;50.328;8.720;2023-06-14T06:29:06;99603.31;;;24.77;31.99
14383;BME280;7275;50.328;8.720;2023-06-14T06:31:35;99602.88;;;24.81;31.99
14383;BME280;7275;50.328;8.720;2023-06-14T06:34:03;99610.22;;;24.89;31.98
14383;BME280;7275;50.328;8.720;2023-06-14T06:36:31;99611.03;;;24.99;31.80
14383;BME280;7275;50.328;8.720;2023-06-14T06:38:58;99611.69;;;25.10;31.98
14383;BME280;7275;50.328;8.720;2023-06-14T06:41:26;99610.47;;;25.22;31.78
14383;BME280;7275;50.328;8.720;2023-06-14T06:43:54;99613.94;;;25.32;31.76
14383;BME280;7275;50.328;8.720;2023-06-14T06:46:22;99612.09;;;25.43;31.89
14383;BME280;7275;50.328;8.720;2023-06-14T06:48:51;99614.56;;;25.54;31.81
14383;BME280;7275;50.328;8.720;2023-06-14T06:51:19;99616.34;;;25.63;31.59
14383;BME280;7275;50.328;8.720;2023-06-14T06:53:52;99616.13;;;25.74;31.76
14383;BME280;7275;50.328;8.720;2023-06-14T06:56:20;99611.47;;;25.84;31.42
14383;BME280;7275;50.328;8.720;2023-06-14T06:58:49;99620.34;;;25.94;31.48
14383;BME280;7275;50.328;8.720;2023-06-14T07:01:17;99615.56;;;26.05;31.37
14383;BME280;7275;50.328;8.720;2023-06-14T07:03:46;99616.34;;;26.16;31.39
14383;BME280;7275;50.328;8.720;2023-06-14T07:06:15;99618.41;;;26.22;31.22
14383;BME280;7275;50.328;8.720;2023-06-14T07:08:45;99626.81;;;26.36;31.17
14383;BME280;7275;50.328;8.720;2023-06-14T07:11:14;99619.59;;;26.45;31.18
14383;BME280;7275;50.328;8.720;2023-06-14T07:13:42;99618.47;;;26.55;31.03
14383;BME280;7275;50.328;8.720;2023-06-14T07:16:09;99624.94;;;26.62;30.99
14383;BME280;7275;50.328;8.720;2023-06-14T07:18:37;99631.00;;;26.74;30.85
14383;BME280;7275;50.328;8.720;2023-06-14T07:21:05;99628.50;;;26.80;30.72
14383;BME280;7275;50.328;8.720;2023-06-14T07:23:34;99628.66;;;26.87;30.65
14383;BME280;7275;50.328;8.720;2023-06-14T07:26:02;99623.63;;;26.92;30.73
14383;BME280;7275;50.328;8.720;2023-06-14T07:28:29;99628.56;;;26.97;30.50
14383;BME280;7275;50.328;8.720;2023-06-14T07:30:57;99619.59;;;27.04;30.55
14383;BME280;7275;50.328;8.720;2023-06-14T07:33:24;99614.19;;;27.12;30.62
14383;BME280;7275;50.328;8.720;2023-06-14T07:35:52;99616.97;;;27.20;30.60
14383;BME280;7275;50.328;8.720;2023-06-14T07:38:20;99614.41;;;27.27;30.08
14383;BME280;7275;50.328;8.720;2023-06-14T07:40:49;99617.88;;;27.37;30.34
14383;BME280;7275;50.328;8.720;2023-06-14T07:43:17;99622.47;;;27.44;30.13
14383;BME280;7275;50.328;8.720;2023-06-14T07:45:47;99619.94;;;27.51;29.81
14383;BME280;7275;50.328;8.720;2023-06-14T07:48:32;99613.84;;;27.57;30.02
14383;BME280;7275;50.328;8.720;2023-06-14T07:51:00;99615.03;;;27.62;29.85
14383;BME280;7275;50.328;8.720;2023-06-14T07:53:28;99620.16;;;27.65;29.25
14383;BME280;7275;50.328;8.720;2023-06-14T07:55:58;99619.78;;;27.68;28.99
14383;BME280;7275;50.328;8.720;2023-06-14T07:58:26;99614.91;;;27.72;29.34
14383;BME280;7275;50.328;8.720;2023-06-14T08:00:54;99613.88;;;27.81;29.06
14383;BME280;7275;50.328;8.720;2023-06-14T08:03:21;99621.19;;;27.89;28.94
14383;BME280;7275;50.328;8.720;2023-06-14T08:05:50;99621.03;;;27.98;29.08
14383;BME280;7275;50.328;8.720;2023-06-14T08:08:18;99631.91;;;28.06;28.98
14383;BME280;7275;50.328;8.720;2023-06-14T08:10:46;99627.50;;;28.13;28.93
14383;BME280;7275;50.328;8.720;2023-06-14T08:13:15;99622.75;;;28.23;28.33
14383;BME280;7275;50.328;8.720;2023-06-14T08:15:43;99629.22;;;28.30;28.39
14383;BME280;7275;50.328;8.720;2023-06-14T08:18:12;99630.38;;;28.36;28.33
14383;BME280;7275;50.328;8.720;2023-06-14T08:20:39;99632.41;;;28.42;28.33
14383;BME280;7275;50.328;8.720;2023-06-14T08:23:07;99635.28;;;28.48;28.13
14383;BME280;7275;50.328;8.720;2023-06-14T08:25:35;99628.69;;;28.59;28.40
14383;BME280;7275;50.328;8.720;2023-06-14T08:28:03;99631.19;;;28.69;28.55
14383;BME280;7275;50.328;8.720;2023-06-14T08:30:32;99637.13;;;28.80;28.11
14383;BME280;7275;50.328;8.720;2023-06-14T08:33:00;99634.19;;;28.90;27.57
14383;BME280;7275;50.328;8.720;2023-06-14T08:35:42;99634.69;;;29.01;27.50
14383;BME280;7275;50.328;8.720;2023-06-14T08:38:10;99633.09;;;29.15;27.23
14383;BME280;7275;50.328;8.720;2023-06-14T08:40:39;99625.22;;;29.28;27.30
14383;BME280;7275;50.328;8.720;2023-06-14T08:43:07;99622.25;;;29.38;27.34
14383;BME280;7275;50.328;8.720;2023-06-14T08:45:36;99626.47;;;29.48;26.64
14383;BME280;7275;50.328;8.720;2023-06-14T08:48:05;99627.66;;;29.54;26.64
14383;BME280;7275;50.328;8.720;2023-06-14T08:50:34;99627.94;;;29.59;26.72
14383;BME280;7275;50.328;8.720;2023-06-14T08:53:05;99631.84;;;29.64;26.49
14383;BME280;7275;50.328;8.720;2023-06-14T08:55:37;99629.22;;;29.71;26.53
14383;BME280;7275;50.328;8.720;2023-06-14T08:58:09;99621.84;;;29.79;26.31
14383;BME280;7275;50.328;8.720;2023-06-14T09:00:42;99612.94;;;29.85;26.41
14383;BME280;7275;50.328;8.720;2023-06-14T09:03:11;99630.94;;;29.94;26.64
14383;BME280;7275;50.328;8.720;2023-06-14T09:05:41;99624.22;;;30.05;26.61
14383;BME280;7275;50.328;8.720;2023-06-14T09:08:10;99620.41;;;30.14;26.40
14383;BME280;7275;50.328;8.720;2023-06-14T09:10:39;99632.91;;;30.23;26.03
14383;BME280;7275;50.328;8.720;2023-06-14T09:13:07;99626.06;;;30.27;26.19
14383;BME280;7275;50.328;8.720;2023-06-14T09:15:35;99636.03;;;30.43;26.53
14383;BME280;7275;50.328;8.720;2023-06-14T09:18:04;99646.50;;;30.54;26.31
14383;BME280;7275;50.328;8.720;2023-06-14T09:20:33;99641.03;;;30.54;25.85
14383;BME280;7275;50.328;8.720;2023-06-14T09:23:02;99645.44;;;30.55;26.01
14383;BME280;7275;50.328;8.720;2023-06-14T09:25:31;99640.56;;;30.65;25.61
14383;BME280;7275;50.328;8.720;2023-06-14T09:28:06;99643.31;;;30.79;26.04
14383;BME280;7275;50.328;8.720;2023-06-14T09:30:35;99640.59;;;30.94;25.67
14383;BME280;7275;50.328;8.720;2023-06-14T09:33:04;99637.88;;;31.09;25.92
14383;BME280;7275;50.328;8.720;2023-06-14T09:35:32;99648.31;;;31.20;25.68
14383;BME280;7275;50.328;8.720;2023-06-14T09:38:00;99645.78;;;31.33;25.43
14383;BME280;7275;50.328;8.720;2023-06-14T09:40:28;99647.66;;;31.47;25.34
14383;BME280;7275;50.328;8.720;2023-06-14T09:43:01;99651.69;;;31.51;25.02
14383;BME280;7275;50.328;8.720;2023-06-14T09:45:31;99637.75;;;31.46;24.98
14383;BME280;7275;50.328;8.720;2023-06-14T09:48:00;99646.72;;;31.40;24.88
14383;BME280;7275;50.328;8.720;2023-06-14T09:50:34;99645.13;;;31.31;25.15
14383;BME280;7275;50.328;8.720;2023-06-14T09:53:05;99651.81;;;31.43;25.07
14383;BME280;7275;50.328;8.720;2023-06-14T09:55:36;99654.50;;;31.58;25.17
14383;BME280;7275;50.328;8.720;2023-06-14T09:58:06;99642.47;;;31.73;24.90
14383;BME280;7275;50.328;8.720;2023-06-14T10:00:35;99650.34;;;31.97;25.22
14383;BME280;7275;50.328;8.720;2023-06-14T10:03:06;99646.75;;;32.18;24.72
14383;BME280;7275;50.328;8.720;2023-06-14T10:05:43;99644.59;;;32.35;24.35
14383;BME280;7275;50.328;8.720;2023-06-14T10:08:14;99640.47;;;32.45;24.45
14383;BME280;7275;50.328;8.720;2023-06-14T10:10:43;99644.81;;;32.54;24.04
14383;BME280;7275;50.328;8.720;2023-06-14T10:13:11;99640.16;;;32.55;24.11
14383;BME280;7275;50.328;8.720;2023-06-14T10:15:52;99642.06;;;32.54;23.65
14383;BME280;7275;50.328;8.720;2023-06-14T10:18:31;99632.09;;;32.47;23.96
14383;BME280;7275;50.328;8.720;2023-06-14T10:21:08;99640.16;;;32.55;24.15
14383;BME280;7275;50.328;8.720;2023-06-14T10:23:42;99637.88;;;32.58;23.75
14383;BME280;7275;50.328;8.720;2023-06-14T10:26:18;99624.84;;;32.60;23.81
14383;BME280;7275;50.328;8.720;2023-06-14T10:28:59;99636.91;;;32.72;24.06
14383;BME280;7275;50.328;8.720;2023-06-14T10:31:41;99636.53;;;32.82;23.87
14383;BME280;7275;50.328;8.720;2023-06-14T10:34:10;99635.75;;;32.88;23.80
14383;BME280;7275;50.328;8.720;2023-06-14T10:36:43;99640.94;;;33.04;23.99
14383;BME280;7275;50.328;8.720;2023-06-14T10:39:15;99634.31;;;33.26;23.71
14383;BME280;7275;50.328;8.720;2023-06-14T10:41:50;99633.81;;;33.50;23.77
14383;BME280;7275;50.328;8.720;2023-06-14T10:44:33;99633.25;;;33.74;23.84
14383;BME280;7275;50.328;8.720;2023-06-14T10:47:01;99639.19;;;33.98;23.63
14383;BME280;7275;50.328;8.720;2023-06-14T10:49:42;99631.63;;;34.19;23.00
14383;BME280;7275;50.328;8.720;2023-06-14T10:52:13;99621.53;;;34.39;22.42
14383;BME280;7275;50.328;8.720;2023-06-14T10:55:13;99626.38;;;34.57;23.19
14383;BME280;7275;50.328;8.720;2023-06-14T10:57:44;99623.84;;;34.69;22.57
14383;BME280;7275;50.328;8.720;2023-06-14T11:00:19;99623.84;;;34.69;22.05
14383;BME280;7275;50.328;8.720;2023-06-14T11:03:22;99627.03;;;34.52;21.81
14383;BME280;7275;50.328;8.720;2023-06-14T11:05:58;99630.16;;;34.30;21.79
14383;BME280;7275;50.328;8.720;2023-06-14T11:08:56;99630.38;;;34.02;22.13
14383;BME280;7275;50.328;8.720;2023-06-14T11:11:31;99635.56;;;33.84;21.96
14383;BME280;7275;50.328;8.720;2023-06-14T11:14:00;99634.09;;;33.75;22.25
14383;BME280;7275;50.328;8.720;2023-06-14T11:16:29;99640.41;;;33.69;22.31
14383;BME280;7275;50.328;8.720;2023-06-14T11:19:00;99636.97;;;33.54;22.29
14383;BME280;7275;50.328;8.720;2023-06-14T11:21:28;99637.06;;;33.33;22.13
14383;BME280;7275;50.328;8.720;2023-06-14T11:23:59;99631.31;;;33.15;22.26
14383;BME280;7275;50.328;8.720;2023-06-14T11:26:28;99637.69;;;32.94;22.36
14383;BME280;7275;50.328;8.720;2023-06-14T11:28:56;99631.03;;;32.75;22.30
14383;BME280;7275;50.328;8.720;2023-06-14T11:31:25;99636.38;;;32.56;22.44
14383;BME280;7275;50.328;8.720;2023-06-14T11:33:54;99637.34;;;32.48;22.92
14383;BME280;7275;50.328;8.720;2023-06-14T11:36:23;99631.63;;;32.43;22.45
14383;BME280;7275;50.328;8.720;2023-06-14T11:38:59;99624.78;;;32.54;23.04
14383;BME280;7275;50.328;8.720;2023-06-14T11:41:32;99624.34;;;32.84;22.91
14383;BME280;7275;50.328;8.720;2023-06-14T11:44:01;99629.41;;;33.22;22.75
14383;BME280;7275;50.328;8.720;2023-06-14T11:46:29;99632.47;;;33.40;21.91
14383;BME280;7275;50.328;8.720;2023-06-14T11:48:57;99636.03;;;33.40;22.24
14383;BME280;7275;50.328;8.720;2023-06-14T11:51:24;99625.91;;;33.34;21.92
14383;BME280;7275;50.328;8.720;2023-06-14T11:53:52;99636.66;;;33.29;22.15
14383;BME280;7275;50.328;8.720;2023-06-14T11:56:22;99632.66;;;33.38;22.06
14383;BME280;7275;50.328;8.720;2023-06-14T11:58:49;99627.00;;;33.46;22.01
14383;BME280;7275;50.328;8.720;2023-06-14T12:01:17;99628.66;;;33.41;21.79
14383;BME280;7275;50.328;8.720;2023-06-14T12:03:48;99626.09;;;33.33;21.72
14383;BME280;7275;50.328;8.720;2023-06-14T12:06:25;99625.00;;;33.21;22.10
14383;BME280;7275;50.328;8.720;2023-06-14T12:08:55;99636.31;;;33.11;22.16
14383;BME280;7275;50.328;8.720;2023-06-14T12:11:31;99631.81;;;32.97;22.20
14383;BME280;7275;50.328;8.720;2023-06-14T12:13:59;99638.63;;;32.80;21.81
14383;BME280;7275;50.328;8.720;2023-06-14T12:16:31;99634.72;;;32.61;22.05
14383;BME280;7275;50.328;8.720;2023-06-14T12:19:01;99634.88;;;32.53;21.87
14383;BME280;7275;50.328;8.720;2023-06-14T12:21:34;99628.00;;;32.64;22.31
14383;BME280;7275;50.328;8.720;2023-06-14T12:24:05;99632.34;;;32.86;22.23
14383;BME280;7275;50.328;8.720;2023-06-14T12:26:38;99634.19;;;33.00;22.32
14383;BME280;7275;50.328;8.720;2023-06-14T12:29:07;99628.75;;;33.07;22.47
14383;BME280;7275;50.328;8.720;2023-06-14T12:31:34;99628.75;;;33.13;21.99
14383;BME280;7275;50.328;8.720;2023-06-14T12:34:02;99629.38;;;33.15;22.16
14383;BME280;7275;50.328;8.720;2023-06-14T12:36:30;99630.66;;;33.13;21.94
14383;BME280;7275;50.328;8.720;2023-06-14T12:38:58;99628.75;;;33.13;22.04
14383;BME280;7275;50.328;8.720;2023-06-14T12:41:26;99630.28;;;33.22;22.45
14383;BME280;7275;50.328;8.720;2023-06-14T12:43:55;99626.75;;;33.35;22.06
14383;BME280;7275;50.328;8.720;2023-06-14T12:46:24;99630.16;;;33.43;21.97
14383;BME280;7275;50.328;8.720;2023-06-14T12:48:52;99635.03;;;33.48;22.08
14383;BME280;7275;50.328;8.720;2023-06-14T12:51:19;99631.22;;;33.49;22.24
14383;BME280;7275;50.328;8.720;2023-06-14T12:53:47;99631.91;;;33.51;22.08
14383;BME280;7275;50.328;8.720;2023-06-14T12:56:15;99629.41;;;33.56;22.15
14383;BME280;7275;50.328;8.720;2023-06-14T12:58:43;99629.19;;;33.64;22.12
14383;BME280;7275;50.328;8.720;2023-06-14T13:01:12;99629.63;;;33.67;21.78
14383;BME280;7275;50.328;8.720;2023-06-14T13:03:40;99636.38;;;33.65;21.77
14383;BME280;7275;50.328;8.720;2023-06-14T13:06:07;99638.69;;;33.61;21.86
14383;BME280;7275;50.328;8.720;2023-06-14T13:08:35;99634.91;;;33.62;22.33
14383;BME280;7275;50.328;8.720;2023-06-14T13:11:03;99635.56;;;33.71;21.94
14383;BME280;7275;50.328;8.720;2023-06-14T13:13:30;99630.94;;;33.91;22.48
14383;BME280;7275;50.328;8.720;2023-06-14T13:16:01;99642.19;;;34.16;21.79
14383;BME280;7275;50.328;8.720;2023-06-14T13:18:30;99636.50;;;34.37;21.56
14383;BME280;7275;50.328;8.720;2023-06-14T13:20:58;99636.06;;;34.46;21.80
14383;BME280;7275;50.328;8.720;2023-06-14T13:23:26;99634.66;;;34.50;21.71
14383;BME280;7275;50.328;8.720;2023-06-14T13:25:53;99635.69;;;34.49;21.63